Time;durP1;ratioP1;P1;durP2;ratioP2;P2;SDS_P1;SDS_P2;PMS_P1;PMS_P2;Temp;Humidity;BMP_temperature;BMP_pressure;BME280_temperature;BME280_humidity;BME280_pressure;Samples;Min_cycle;Max_cycle;Signal;HPM_P1;HPM_P2
2023/04/07 00:02:19;;;;;;;8.40;7.53;;;;;;;;;;4975601;28;20222;-86
2023/04/07 00:04:50;;;;;;;8.80;7.90;;;;;;;;;;4930521;28;20230;-88
2023/04/07 00:07:21;;;;;;;8.33;7.53;;;;;;;;;;4937623;28;20237;-88
2023/04/07 00:09:49;;;;;;;8.27;7.33;;;;;;;;;;4956844;28;20301;-87
2023/04/07 00:12:17;;;;;;;9.97;8.07;;;;;;;;;;4977811;28;20330;-85
2023/04/07 00:14:43;;;;;;;8.97;7.80;;;;;;;;;;4958620;28;20222;-86
2023/04/07 00:17:08;;;;;;;8.47;7.57;;;;;;;;;;4966741;28;20233;-88
2023/04/07 00:19:38;;;;;;;9.40;7.40;;;;;;;;;;4961523;28;20582;-86
2023/04/07 00:22:08;;;;;;;8.77;7.63;;;;;;;;;;4969998;28;20237;-83
2023/04/07 00:24:41;;;;;;;10.17;8.40;;;;;;;;;;4976945;28;20229;-86
2023/04/07 00:27:09;;;;;;;9.97;8.33;;;;;;;;;;4956732;28;20226;-86
2023/04/07 00:29:34;;;;;;;8.47;7.57;;;;;;;;;;4957332;28;20281;-85
2023/04/07 00:32:00;;;;;;;8.77;7.97;;;;;;;;;;4989931;28;20229;-85
2023/04/07 00:34:25;;;;;;;8.60;7.70;;;;;;;;;;4955822;28;20225;-84
2023/04/07 00:36:53;;;;;;;8.40;7.60;;;;;;;;;;4968383;28;20257;-86
2023/04/07 00:39:19;;;;;;;9.83;8.00;;;;;;;;;;4969447;28;20318;-88
2023/04/07 00:41:46;;;;;;;9.83;8.50;;;;;;;;;;4967406;28;20221;-87
2023/04/07 00:44:12;;;;;;;10.87;8.90;;;;;;;;;;4934205;28;20226;-88
2023/04/07 00:46:39;;;;;;;8.60;7.80;;;;;;;;;;4971963;28;20306;-87
2023/04/07 00:49:07;;;;;;;9.60;8.60;;;;;;;;;;4978276;28;20230;-87
2023/04/07 00:51:33;;;;;;;9.17;8.27;;;;;;;;;;4948286;28;20222;-87
2023/04/07 00:53:59;;;;;;;9.03;8.07;;;;;;;;;;4933274;28;20225;-86
2023/04/07 00:56:24;;;;;;;8.87;7.97;;;;;;;;;;4928802;28;20236;-85
2023/04/07 00:58:50;;;;;;;9.80;8.50;;;;;;;;;;4957498;28;20226;-86
2023/04/07 01:01:24;;;;;;;11.67;9.17;;;;;;;;;;4954493;28;20659;-87
2023/04/07 01:03:54;;;;;;;9.60;8.60;;;;;;;;;;4957090;28;20223;-87
2023/04/07 01:06:25;;;;;;;9.57;8.57;;;;;;;;;;4971882;28;20221;-87
2023/04/07 01:09:06;;;;;;;10.90;8.50;;;;;;;;;;4961965;28;20232;-85
2023/04/07 01:11:36;;;;;;;8.93;8.07;;;;;;;;;;4971819;28;20221;-84
2023/04/07 01:14:03;;;;;;;10.77;9.23;;;;;;;;;;4999907;28;20215;-85
2023/04/07 01:16:45;;;;;;;9.30;8.33;;;;;;;;;;4988880;28;20223;-84
2023/04/07 01:19:37;;;;;;;9.80;8.77;;;;;;;;;;4980824;28;20231;-85
2023/04/07 01:22:10;;;;;;;11.43;9.17;;;;;;;;;;4983152;28;20303;-84
2023/04/07 01:24:51;;;;;;;9.80;8.80;;;;;;;;;;4975689;28;20226;-84
2023/04/07 01:27:21;;;;;;;9.53;8.53;;;;;;;;;;5008061;28;20659;-85
2023/04/07 01:29:49;;;;;;;9.77;8.77;;;;;;;;;;4977964;28;20288;-85
2023/04/07 01:32:19;;;;;;;9.80;8.80;;;;;;;;;;4980345;28;20264;-85
2023/04/07 01:34:46;;;;;;;9.10;8.30;;;;;;;;;;4948607;28;20226;-85
2023/04/07 01:37:11;;;;;;;10.33;9.23;;;;;;;;;;4958522;28;20214;-87
2023/04/07 01:39:41;;;;;;;10.10;9.10;;;;;;;;;;4968607;28;20766;-85
2023/04/07 01:42:11;;;;;;;9.63;8.70;;;;;;;;;;4932633;28;20341;-86
2023/04/07 01:44:41;;;;;;;11.57;9.30;;;;;;;;;;4979854;28;20250;-86
2023/04/07 01:47:09;;;;;;;11.33;9.13;;;;;;;;;;4973863;28;20226;-86
2023/04/07 01:49:35;;;;;;;10.53;9.17;;;;;;;;;;4971699;28;20230;-86
2023/04/07 01:52:03;;;;;;;10.00;8.97;;;;;;;;;;4969688;28;20233;-86
2023/04/07 01:54:31;;;;;;;10.33;9.23;;;;;;;;;;4926585;28;20307;-86
2023/04/07 01:56:56;;;;;;;10.33;9.30;;;;;;;;;;4928799;28;20640;-87
2023/04/07 01:59:23;;;;;;;10.93;9.50;;;;;;;;;;4934957;28;20593;-86
2023/04/07 02:01:49;;;;;;;10.20;9.10;;;;;;;;;;4948138;28;20233;-87
2023/04/07 02:04:30;;;;;;;11.40;8.87;;;;;;;;;;4933964;28;20452;-87
2023/04/07 02:06:58;;;;;;;9.83;8.80;;;;;;;;;;4947443;28;20731;-85
2023/04/07 02:09:32;;;;;;;9.83;8.83;;;;;;;;;;4959220;28;20217;-86
2023/04/07 02:11:59;;;;;;;9.83;8.70;;;;;;;;;;4949054;28;20222;-86
2023/04/07 02:14:29;;;;;;;9.63;8.53;;;;;;;;;;4963270;28;20694;-86
2023/04/07 02:17:05;;;;;;;9.90;8.90;;;;;;;;;;4973896;28;20316;-87
2023/04/07 02:19:34;;;;;;;10.20;9.10;;;;;;;;;;4959432;28;20318;-86
2023/04/07 02:22:03;;;;;;;10.80;9.30;;;;;;;;;;4961556;28;20245;-86
2023/04/07 02:24:29;;;;;;;9.30;8.40;;;;;;;;;;4977020;28;20237;-86
2023/04/07 02:27:02;;;;;;;10.33;9.17;;;;;;;;;;4968864;28;20223;-86
2023/04/07 02:29:28;;;;;;;9.63;8.63;;;;;;;;;;4955183;28;20231;-87
2023/04/07 02:31:55;;;;;;;10.20;8.97;;;;;;;;;;4965727;28;20215;-87
2023/04/07 02:34:20;;;;;;;9.87;8.87;;;;;;;;;;4948448;28;20285;-88
2023/04/07 02:36:46;;;;;;;9.77;8.77;;;;;;;;;;4941232;28;20221;-87
2023/04/07 02:39:11;;;;;;;10.10;9.10;;;;;;;;;;4923510;28;20276;-88
2023/04/07 02:41:40;;;;;;;9.93;8.90;;;;;;;;;;4957545;28;20227;-86
2023/04/07 02:44:05;;;;;;;9.40;8.50;;;;;;;;;;4963677;28;20227;-85
2023/04/07 02:46:34;;;;;;;10.43;8.70;;;;;;;;;;4961206;28;20214;-86
2023/04/07 02:49:00;;;;;;;10.17;8.87;;;;;;;;;;4952895;28;20226;-87
2023/04/07 02:51:29;;;;;;;9.87;8.87;;;;;;;;;;4936937;28;20230;-87
2023/04/07 02:53:54;;;;;;;10.20;9.20;;;;;;;;;;4951049;28;20223;-87
2023/04/07 02:56:20;;;;;;;9.73;8.83;;;;;;;;;;4939338;28;20610;-85
2023/04/07 02:58:45;;;;;;;11.90;9.30;;;;;;;;;;4974377;28;20222;-88
2023/04/07 03:01:11;;;;;;;9.50;8.60;;;;;;;;;;4942184;28;20222;-87
2023/04/07 03:03:38;;;;;;;10.87;9.47;;;;;;;;;;4957383;28;20781;-86
2023/04/07 03:06:12;;;;;;;11.70;9.43;;;;;;;;;;4946922;28;20225;-86
2023/04/07 03:08:50;;;;;;;10.70;9.27;;;;;;;;;;4932745;28;20733;-86
2023/04/07 03:11:18;;;;;;;13.53;9.90;;;;;;;;;;4937738;28;20223;-86
2023/04/07 03:13:46;;;;;;;10.10;9.10;;;;;;;;;;4977326;28;20225;-87
2023/04/07 03:16:14;;;;;;;10.90;9.83;;;;;;;;;;4954431;28;20226;-86
2023/04/07 03:18:57;;;;;;;11.07;9.83;;;;;;;;;;4951074;28;20227;-85
2023/04/07 03:21:24;;;;;;;11.70;10.47;;;;;;;;;;4957225;28;20215;-86
2023/04/07 03:23:50;;;;;;;11.60;10.47;;;;;;;;;;4976216;28;20222;-86
2023/04/07 03:26:18;;;;;;;11.13;10.03;;;;;;;;;;4933933;28;20706;-86
2023/04/07 03:28:44;;;;;;;12.03;10.57;;;;;;;;;;4987142;28;20234;-88
2023/04/07 03:31:10;;;;;;;11.37;10.30;;;;;;;;;;4952952;28;20226;-86
2023/04/07 03:33:36;;;;;;;12.13;10.83;;;;;;;;;;4962246;28;20276;-88
2023/04/07 03:36:01;;;;;;;11.77;10.67;;;;;;;;;;4945962;28;20218;-86
2023/04/07 03:38:30;;;;;;;11.67;10.13;;;;;;;;;;4954120;28;20226;-87
2023/04/07 03:41:02;;;;;;;11.87;10.67;;;;;;;;;;4947454;28;20214;-87
2023/04/07 03:43:30;;;;;;;12.50;11.17;;;;;;;;;;4951939;28;20610;-87
2023/04/07 03:45:55;;;;;;;12.23;10.93;;;;;;;;;;4951723;28;20245;-87
2023/04/07 03:48:24;;;;;;;11.67;10.57;;;;;;;;;;4934594;28;20225;-88
2023/04/07 03:50:59;;;;;;;12.30;10.90;;;;;;;;;;4946351;28;20305;-87
2023/04/07 03:53:25;;;;;;;12.63;11.37;;;;;;;;;;4944871;28;20717;-85
2023/04/07 03:55:51;;;;;;;11.77;10.57;;;;;;;;;;4949129;28;20563;-87
2023/04/07 03:58:37;;;;;;;12.60;10.80;;;;;;;;;;4957075;28;20222;-88
2023/04/07 04:01:03;;;;;;;12.40;11.00;;;;;;;;;;4935952;28;20230;-87
2023/04/07 04:03:29;;;;;;;13.17;11.13;;;;;;;;;;4936564;28;20234;-87
2023/04/07 04:06:25;;;;;;;12.30;11.00;;;;;;;;;;4956653;28;20234;-87
2023/04/07 04:08:53;;;;;;;13.53;11.13;;;;;;;;;;4962679;28;20225;-85
2023/04/07 04:11:21;;;;;;;12.33;10.17;;;;;;;;;;4942305;28;20226;-87
2023/04/07 04:13:54;;;;;;;13.33;11.23;;;;;;;;;;4973151;28;20215;-87
2023/04/07 04:16:20;;;;;;;12.13;10.83;;;;;;;;;;4957229;28;20281;-87
2023/04/07 04:18:50;;;;;;;12.13;10.93;;;;;;;;;;4962606;28;20241;-86
2023/04/07 04:21:20;;;;;;;12.40;10.20;;;;;;;;;;4977694;28;20218;-87
2023/04/07 04:23:49;;;;;;;12.70;10.77;;;;;;;;;;4948579;28;20577;-87
2023/04/07 04:26:15;;;;;;;12.03;10.10;;;;;;;;;;4961841;28;20246;-86
2023/04/07 04:28:45;;;;;;;11.83;10.73;;;;;;;;;;4951455;28;20235;-87
2023/04/07 04:31:12;;;;;;;12.13;10.23;;;;;;;;;;4968611;28;20342;-85
2023/04/07 04:33:44;;;;;;;11.30;10.20;;;;;;;;;;4983526;28;20211;-84
2023/04/07 04:36:09;;;;;;;10.83;9.50;;;;;;;;;;4969443;28;20226;-85
2023/04/07 04:38:38;;;;;;;11.47;9.60;;;;;;;;;;4940717;28;20210;-85
2023/04/07 04:41:16;;;;;;;11.87;9.80;;;;;;;;;;4985486;28;20222;-84
2023/04/07 04:43:44;;;;;;;11.40;9.97;;;;;;;;;;4951024;28;20226;-85
2023/04/07 04:46:16;;;;;;;10.43;9.30;;;;;;;;;;4947641;28;20229;-85
2023/04/07 04:48:42;;;;;;;10.57;9.47;;;;;;;;;;4987480;28;20233;-85
2023/04/07 04:51:07;;;;;;;11.43;9.73;;;;;;;;;;4967321;28;20218;-85
2023/04/07 04:53:34;;;;;;;11.23;9.43;;;;;;;;;;4979841;28;20226;-84
2023/04/07 04:56:01;;;;;;;10.20;9.20;;;;;;;;;;4976786;28;20640;-85
2023/04/07 04:58:41;;;;;;;10.07;9.03;;;;;;;;;;4967387;28;20223;-87
2023/04/07 05:01:07;;;;;;;11.07;9.20;;;;;;;;;;4986252;28;20222;-85
2023/04/07 05:03:39;;;;;;;9.50;8.57;;;;;;;;;;4968744;28;20615;-85
2023/04/07 05:06:15;;;;;;;9.90;8.90;;;;;;;;;;4970772;28;20222;-85
2023/04/07 05:08:42;;;;;;;10.10;9.10;;;;;;;;;;4971277;28;20591;-84
2023/04/07 05:11:08;;;;;;;10.10;9.10;;;;;;;;;;4943381;28;20218;-85
2023/04/07 05:13:40;;;;;;;10.57;9.00;;;;;;;;;;4970642;28;20701;-85
2023/04/07 05:16:09;;;;;;;11.60;9.30;;;;;;;;;;4955287;28;20222;-85
2023/04/07 05:18:35;;;;;;;12.37;9.07;;;;;;;;;;4980149;28;20339;-85
2023/04/07 05:21:01;;;;;;;9.37;8.57;;;;;;;;;;4970912;28;20282;-86
2023/04/07 05:23:30;;;;;;;9.30;8.17;;;;;;;;;;4955869;28;20230;-85
2023/04/07 05:25:55;;;;;;;9.37;8.40;;;;;;;;;;4971429;28;20358;-84
2023/04/07 05:28:22;;;;;;;8.73;7.87;;;;;;;;;;4977461;28;20306;-84
2023/04/07 05:30:50;;;;;;;8.97;8.00;;;;;;;;;;5001082;28;20218;-85
2023/04/07 05:33:18;;;;;;;8.93;8.13;;;;;;;;;;4992181;28;20234;-84
2023/04/07 05:35:50;;;;;;;9.83;8.50;;;;;;;;;;4972540;28;20233;-85
2023/04/07 05:38:15;;;;;;;8.93;7.83;;;;;;;;;;4988920;28;20256;-85
2023/04/07 05:40:46;;;;;;;8.67;7.83;;;;;;;;;;4988844;28;20246;-85
2023/04/07 05:43:18;;;;;;;9.60;8.17;;;;;;;;;;4952069;28;20230;-85
2023/04/07 05:45:43;;;;;;;8.80;7.90;;;;;;;;;;4967926;28;20228;-84
2023/04/07 05:48:09;;;;;;;8.87;8.07;;;;;;;;;;4987274;28;20225;-84
2023/04/07 05:50:43;;;;;;;8.57;7.70;;;;;;;;;;4939854;28;20286;-85
2023/04/07 05:53:15;;;;;;;7.87;7.07;;;;;;;;;;4965321;28;20298;-84
2023/04/07 05:55:45;;;;;;;8.97;8.07;;;;;;;;;;4973010;28;20242;-85
2023/04/07 05:58:20;;;;;;;8.30;7.50;;;;;;;;;;4983557;28;20670;-87
2023/04/07 06:00:51;;;;;;;8.73;7.83;;;;;;;;;;4959964;28;20225;-86
2023/04/07 06:03:17;;;;;;;9.13;7.33;;;;;;;;;;4966230;28;20234;-86
2023/04/07 06:05:58;;;;;;;9.00;7.50;;;;;;;;;;4974237;28;20242;-86
2023/04/07 06:08:25;;;;;;;7.90;7.20;;;;;;;;;;4997188;28;20229;-85
2023/04/07 06:10:53;;;;;;;8.43;7.53;;;;;;;;;;4950720;28;20221;-84
2023/04/07 06:13:19;;;;;;;9.57;7.37;;;;;;;;;;4983125;28;20260;-87
2023/04/07 06:15:47;;;;;;;9.07;7.80;;;;;;;;;;4975459;28;20601;-86
2023/04/07 06:18:15;;;;;;;7.83;7.03;;;;;;;;;;4949322;28;20347;-87
2023/04/07 06:20:44;;;;;;;9.47;6.80;;;;;;;;;;4963139;28;20257;-87
2023/04/07 06:23:09;;;;;;;8.20;7.10;;;;;;;;;;4964548;28;20225;-86
2023/04/07 06:25:35;;;;;;;7.93;7.13;;;;;;;;;;4955873;28;20223;-86
2023/04/07 06:28:00;;;;;;;7.60;6.87;;;;;;;;;;4943979;28;20229;-87
2023/04/07 06:30:26;;;;;;;8.47;7.43;;;;;;;;;;4945169;28;20222;-87
2023/04/07 06:32:56;;;;;;;7.47;6.73;;;;;;;;;;4958109;28;20218;-87
2023/04/07 06:35:26;;;;;;;9.47;7.10;;;;;;;;;;4960295;28;20229;-87
2023/04/07 06:37:52;;;;;;;7.57;6.67;;;;;;;;;;4969577;28;20236;-86
2023/04/07 06:40:17;;;;;;;8.57;7.03;;;;;;;;;;4971825;28;20217;-85
2023/04/07 06:42:43;;;;;;;7.80;6.60;;;;;;;;;;4985766;28;20241;-88
2023/04/07 06:45:15;;;;;;;7.47;6.77;;;;;;;;;;4969624;28;20214;-87
2023/04/07 06:47:45;;;;;;;7.47;6.77;;;;;;;;;;4984842;28;20226;-88
2023/04/07 06:50:14;;;;;;;7.20;6.50;;;;;;;;;;4980393;28;20261;-88
2023/04/07 06:52:40;;;;;;;6.83;6.17;;;;;;;;;;4950498;28;20238;-87
2023/04/07 06:55:09;;;;;;;6.77;6.00;;;;;;;;;;4944615;28;20260;-87
2023/04/07 06:57:34;;;;;;;7.77;6.33;;;;;;;;;;4960070;28;20699;-89
2023/04/07 07:00:00;;;;;;;6.97;6.13;;;;;;;;;;4965096;28;20268;-88
2023/04/07 07:02:26;;;;;;;6.80;6.20;;;;;;;;;;4975674;28;20241;-87
2023/04/07 07:04:51;;;;;;;7.27;6.57;;;;;;;;;;4961087;28;20226;-87
2023/04/07 07:07:17;;;;;;;7.57;6.50;;;;;;;;;;4946484;28;20572;-87
2023/04/07 07:09:42;;;;;;;7.27;5.73;;;;;;;;;;4978715;28;20224;-87
2023/04/07 07:12:08;;;;;;;7.50;6.10;;;;;;;;;;4961893;28;20269;-87
2023/04/07 07:14:33;;;;;;;6.90;6.20;;;;;;;;;;4941278;28;20233;-86
2023/04/07 07:16:59;;;;;;;8.87;5.87;;;;;;;;;;4974389;28;20226;-87
2023/04/07 07:19:24;;;;;;;6.73;5.83;;;;;;;;;;4964992;28;20225;-87
2023/04/07 07:21:50;;;;;;;6.37;5.53;;;;;;;;;;4944583;28;20698;-86
2023/04/07 07:24:18;;;;;;;6.83;5.57;;;;;;;;;;4989007;28;20223;-86
2023/04/07 07:26:44;;;;;;;6.30;5.67;;;;;;;;;;4979350;28;20300;-87
2023/04/07 07:29:11;;;;;;;6.93;5.43;;;;;;;;;;4996679;28;20223;-86
2023/04/07 07:31:36;;;;;;;5.97;5.37;;;;;;;;;;4955109;28;20346;-89
2023/04/07 07:34:05;;;;;;;6.77;5.30;;;;;;;;;;4947426;28;20279;-87
2023/04/07 07:36:33;;;;;;;8.43;5.63;;;;;;;;;;4937773;28;20263;-88
2023/04/07 07:38:58;;;;;;;5.43;4.93;;;;;;;;;;4984333;28;20229;-89
2023/04/07 07:41:25;;;;;;;7.77;5.87;;;;;;;;;;4971195;28;20222;-87
2023/04/07 07:43:51;;;;;;;8.27;5.53;;;;;;;;;;4963366;28;20237;-86
2023/04/07 07:46:17;;;;;;;7.83;5.63;;;;;;;;;;4970518;28;20672;-87
2023/04/07 07:48:42;;;;;;;6.87;5.63;;;;;;;;;;4948508;28;20234;-86
2023/04/07 07:51:11;;;;;;;6.23;5.63;;;;;;;;;;4987920;28;20222;-87
2023/04/07 07:53:39;;;;;;;7.33;5.60;;;;;;;;;;4929771;28;20225;-87
2023/04/07 07:56:07;;;;;;;7.20;5.50;;;;;;;;;;4968432;28;20225;-86
2023/04/07 07:58:35;;;;;;;5.70;5.20;;;;;;;;;;4956358;28;20289;-87
2023/04/07 08:01:01;;;;;;;5.67;5.07;;;;;;;;;;4966197;28;20261;-88
2023/04/07 08:03:26;;;;;;;6.23;5.07;;;;;;;;;;4968641;28;20226;-87
2023/04/07 08:05:54;;;;;;;6.83;5.13;;;;;;;;;;4969476;28;20296;-87
2023/04/07 08:08:20;;;;;;;7.33;5.57;;;;;;;;;;4966329;28;20233;-88
2023/04/07 08:10:47;;;;;;;6.13;5.53;;;;;;;;;;4936353;28;20294;-87
2023/04/07 08:13:13;;;;;;;6.60;5.33;;;;;;;;;;4960757;28;20326;-87
2023/04/07 08:15:43;;;;;;;7.57;5.17;;;;;;;;;;4933601;28;20239;-87
2023/04/07 08:18:09;;;;;;;8.13;5.87;;;;;;;;;;4958129;28;20268;-88
2023/04/07 08:20:37;;;;;;;6.53;5.03;;;;;;;;;;4958182;28;20274;-89
2023/04/07 08:23:03;;;;;;;5.83;5.17;;;;;;;;;;4976665;28;20230;-87
2023/04/07 08:25:30;;;;;;;5.67;5.03;;;;;;;;;;4948440;28;20917;-88
2023/04/07 08:27:58;;;;;;;6.47;5.50;;;;;;;;;;4946062;28;20316;-88
2023/04/07 08:30:26;;;;;;;6.60;5.40;;;;;;;;;;4969442;28;20217;-86
2023/04/07 08:32:52;;;;;;;6.13;5.37;;;;;;;;;;4961692;28;20210;-87
2023/04/07 08:35:17;;;;;;;6.30;5.70;;;;;;;;;;4961382;28;20213;-86
2023/04/07 08:37:43;;;;;;;6.00;5.40;;;;;;;;;;4969615;28;20225;-88
2023/04/07 08:40:11;;;;;;;6.10;5.47;;;;;;;;;;4962953;28;20765;-86
2023/04/07 08:42:43;;;;;;;7.43;5.60;;;;;;;;;;4935089;28;20319;-86
2023/04/07 08:45:08;;;;;;;5.83;5.27;;;;;;;;;;4957146;28;20270;-87
2023/04/07 08:47:35;;;;;;;6.43;5.83;;;;;;;;;;4978722;28;20216;-85
2023/04/07 08:50:10;;;;;;;10.57;5.17;;;;;;;;;;4977881;28;20227;-87
2023/04/07 08:52:45;;;;;;;5.97;5.23;;;;;;;;;;4955320;28;20232;-85
2023/04/07 08:55:14;;;;;;;5.57;5.00;;;;;;;;;;4944557;28;20218;-88
2023/04/07 08:57:40;;;;;;;7.10;5.60;;;;;;;;;;4960993;28;20229;-86
2023/04/07 09:00:11;;;;;;;6.10;5.50;;;;;;;;;;4978973;28;20224;-89
2023/04/07 09:02:38;;;;;;;6.27;5.63;;;;;;;;;;4966805;28;20226;-86
2023/04/07 09:05:05;;;;;;;6.10;5.50;;;;;;;;;;4947806;28;20355;-87
2023/04/07 09:07:32;;;;;;;7.03;5.20;;;;;;;;;;4963558;28;20229;-87
2023/04/07 09:09:58;;;;;;;5.70;4.80;;;;;;;;;;4976770;28;20229;-87
2023/04/07 09:12:23;;;;;;;6.10;5.40;;;;;;;;;;4979209;28;20242;-85
2023/04/07 09:14:49;;;;;;;6.40;4.87;;;;;;;;;;4964709;28;20245;-87
2023/04/07 09:17:14;;;;;;;6.80;5.43;;;;;;;;;;4976481;28;20346;-87
2023/04/07 09:19:40;;;;;;;5.47;4.97;;;;;;;;;;4959919;28;20237;-86
2023/04/07 09:22:11;;;;;;;5.73;4.87;;;;;;;;;;4961102;28;20241;-86
2023/04/07 09:24:36;;;;;;;6.30;5.23;;;;;;;;;;4952358;28;20688;-87
2023/04/07 09:27:11;;;;;;;5.63;4.97;;;;;;;;;;4999188;28;20214;-88
2023/04/07 09:29:40;;;;;;;6.50;4.93;;;;;;;;;;4972916;28;20232;-85
2023/04/07 09:32:06;;;;;;;6.07;4.87;;;;;;;;;;4965540;28;20282;-86
2023/04/07 09:34:36;;;;;;;5.13;4.63;;;;;;;;;;4971088;28;20233;-80
2023/04/07 09:37:02;;;;;;;6.37;5.37;;;;;;;;;;4972460;28;20313;-82
2023/04/07 09:39:30;;;;;;;5.33;4.77;;;;;;;;;;4962649;28;20292;-83
2023/04/07 09:41:59;;;;;;;6.63;5.30;;;;;;;;;;4942762;28;20222;-82
2023/04/07 09:44:30;;;;;;;6.00;4.93;;;;;;;;;;4963295;28;20704;-81
2023/04/07 09:47:13;;;;;;;6.83;5.60;;;;;;;;;;4958610;28;20282;-81
2023/04/07 09:49:52;;;;;;;6.87;5.20;;;;;;;;;;4957648;28;20223;-82
2023/04/07 09:52:25;;;;;;;6.67;5.37;;;;;;;;;;4987636;28;20213;-80
2023/04/07 09:54:51;;;;;;;5.83;5.07;;;;;;;;;;4962216;28;20276;-78
2023/04/07 09:57:20;;;;;;;6.77;5.40;;;;;;;;;;4961480;28;20232;-80
2023/04/07 09:59:56;;;;;;;7.53;5.40;;;;;;;;;;4951624;28;20230;-81
2023/04/07 10:02:22;;;;;;;7.00;5.90;;;;;;;;;;4961507;28;20230;-81
2023/04/07 10:04:47;;;;;;;7.57;5.17;;;;;;;;;;4949830;28;20226;-80
2023/04/07 10:09:42;;;;;;;5.63;4.97;;;;;;;;;;4942175;28;20746;-77
2023/04/07 10:12:08;;;;;;;6.27;4.97;;;;;;;;;;4949341;28;20219;-78
2023/04/07 10:14:37;;;;;;;6.47;5.03;;;;;;;;;;4952204;28;20890;-78
2023/04/07 10:17:02;;;;;;;6.87;5.50;;;;;;;;;;4949772;28;20783;-79
2023/04/07 10:19:33;;;;;;;6.63;4.77;;;;;;;;;;4936424;29;20317;-78
2023/04/07 10:22:02;;;;;;;5.97;5.40;;;;;;;;;;4953078;28;20239;-77
2023/04/07 10:24:33;;;;;;;7.77;5.27;;;;;;;;;;4934038;29;20245;-77
2023/04/07 10:27:01;;;;;;;6.23;5.17;;;;;;;;;;4949769;28;20692;-78
2023/04/07 10:29:26;;;;;;;5.23;4.73;;;;;;;;;;4950754;28;20231;-78
2023/04/07 10:31:52;;;;;;;5.30;4.53;;;;;;;;;;4954897;28;20278;-77
2023/04/07 10:34:49;;;;;;;6.30;5.10;;;;;;;;;;4952172;28;20230;-78
2023/04/07 10:37:21;;;;;;;5.70;5.00;;;;;;;;;;4955397;28;20222;-77
2023/04/07 10:39:52;;;;;;;6.63;4.17;;;;;;;;;;4939886;28;20225;-77
2023/04/07 10:42:40;;;;;;;5.27;4.50;;;;;;;;;;4951293;28;20317;-78
2023/04/07 10:45:09;;;;;;;6.00;4.47;;;;;;;;;;4936661;29;20227;-79
2023/04/07 10:47:53;;;;;;;4.83;4.30;;;;;;;;;;4917172;29;20893;-77
2023/04/07 10:50:20;;;;;;;4.90;4.40;;;;;;;;;;4953701;28;20234;-78
2023/04/07 10:52:46;;;;;;;4.17;3.77;;;;;;;;;;4943871;28;20221;-78
2023/04/07 10:55:34;;;;;;;4.80;3.90;;;;;;;;;;4935744;29;20227;-78
2023/04/07 10:58:22;;;;;;;4.23;3.83;;;;;;;;;;4947388;29;20219;-79
2023/04/07 11:00:58;;;;;;;4.93;4.43;;;;;;;;;;4940940;29;20262;-78
2023/04/07 11:03:27;;;;;;;5.10;4.60;;;;;;;;;;4939566;29;20305;-77
2023/04/07 11:06:13;;;;;;;5.90;4.50;;;;;;;;;;4955851;29;20230;-78
2023/04/07 11:08:47;;;;;;;4.77;4.37;;;;;;;;;;4955529;28;20223;-78
2023/04/07 11:11:14;;;;;;;5.53;4.70;;;;;;;;;;4964524;28;20230;-77
2023/04/07 11:13:45;;;;;;;5.37;4.87;;;;;;;;;;4955492;28;20669;-76
2023/04/07 11:16:11;;;;;;;6.27;4.03;;;;;;;;;;4922827;28;20233;-77
2023/04/07 11:18:39;;;;;;;5.73;4.30;;;;;;;;;;4952286;29;20269;-78
2023/04/07 11:21:05;;;;;;;4.67;4.27;;;;;;;;;;4944819;29;20230;-79
2023/04/07 11:23:42;;;;;;;4.60;4.20;;;;;;;;;;4949916;29;20231;-78
2023/04/07 11:26:09;;;;;;;4.83;4.30;;;;;;;;;;4962533;28;20258;-78
2023/04/07 11:28:37;;;;;;;5.97;4.20;;;;;;;;;;4969813;28;20219;-78
2023/04/07 11:31:03;;;;;;;4.53;4.03;;;;;;;;;;4970981;28;20693;-78
2023/04/07 11:33:34;;;;;;;4.43;4.03;;;;;;;;;;4966263;28;20225;-78
2023/04/07 11:36:02;;;;;;;4.67;4.13;;;;;;;;;;4937228;29;20254;-78
2023/04/07 11:38:34;;;;;;;4.20;3.80;;;;;;;;;;4952270;29;20303;-78
2023/04/07 11:41:09;;;;;;;4.97;4.13;;;;;;;;;;4966267;28;20260;-77
2023/04/07 11:43:36;;;;;;;4.30;3.90;;;;;;;;;;4934348;29;20268;-74
2023/04/07 11:46:11;;;;;;;5.23;4.10;;;;;;;;;;4956354;28;20569;-77
2023/04/07 11:48:38;;;;;;;4.27;3.87;;;;;;;;;;4970677;28;20226;-78
2023/04/07 11:51:03;;;;;;;6.53;4.03;;;;;;;;;;4931450;28;20227;-77
2023/04/07 11:53:36;;;;;;;4.23;3.83;;;;;;;;;;4969664;28;20261;-77
2023/04/07 11:56:04;;;;;;;4.40;4.00;;;;;;;;;;4931953;29;20648;-78
2023/04/07 11:58:32;;;;;;;4.23;3.83;;;;;;;;;;4964660;28;20231;-79
2023/04/07 12:01:04;;;;;;;4.50;4.10;;;;;;;;;;4930085;28;20231;-79
2023/04/07 12:03:30;;;;;;;4.87;4.27;;;;;;;;;;4957256;28;20610;-79
2023/04/07 12:05:59;;;;;;;4.77;3.83;;;;;;;;;;4943495;29;20214;-77
2023/04/07 12:08:37;;;;;;;4.80;4.00;;;;;;;;;;4933957;29;20700;-77
2023/04/07 12:11:06;;;;;;;4.47;4.03;;;;;;;;;;4935639;28;20226;-76
2023/04/07 12:13:37;;;;;;;5.87;4.30;;;;;;;;;;4958541;28;20282;-77
2023/04/07 12:16:03;;;;;;;4.23;3.83;;;;;;;;;;4954818;28;20214;-78
2023/04/07 12:18:30;;;;;;;5.53;4.10;;;;;;;;;;4954538;28;20293;-77
2023/04/07 12:21:03;;;;;;;4.40;4.00;;;;;;;;;;4941758;28;20222;-77
2023/04/07 12:23:29;;;;;;;4.80;3.77;;;;;;;;;;4953716;28;20658;-78
2023/04/07 12:26:00;;;;;;;3.80;3.50;;;;;;;;;;4959221;28;20219;-79
2023/04/07 12:28:25;;;;;;;4.50;4.00;;;;;;;;;;4956780;28;20230;-79
2023/04/07 12:30:57;;;;;;;4.67;3.93;;;;;;;;;;4938905;29;20223;-78
2023/04/07 12:33:25;;;;;;;4.73;4.20;;;;;;;;;;4943992;28;20230;-79
2023/04/07 12:35:53;;;;;;;6.07;4.00;;;;;;;;;;4941209;28;20235;-79
2023/04/07 12:38:21;;;;;;;4.60;3.73;;;;;;;;;;4961054;28;20227;-79
2023/04/07 12:40:47;;;;;;;4.00;3.60;;;;;;;;;;4941456;29;20608;-79
2023/04/07 12:43:14;;;;;;;4.90;3.93;;;;;;;;;;4958319;28;20242;-79
2023/04/07 12:45:42;;;;;;;4.30;3.60;;;;;;;;;;4943582;29;20237;-79
2023/04/07 12:48:09;;;;;;;4.07;3.67;;;;;;;;;;4960576;28;20226;-78
2023/04/07 12:50:35;;;;;;;4.67;3.90;;;;;;;;;;4945410;28;20237;-78
2023/04/07 12:53:04;;;;;;;4.60;4.20;;;;;;;;;;4964063;28;21169;-77
2023/04/07 12:55:35;;;;;;;5.53;4.20;;;;;;;;;;4942075;28;20223;-77
2023/04/07 12:58:03;;;;;;;4.67;4.00;;;;;;;;;;4965495;28;20254;-77
2023/04/07 13:00:31;;;;;;;4.27;3.87;;;;;;;;;;4964697;28;20257;-77
2023/04/07 13:02:59;;;;;;;5.27;3.90;;;;;;;;;;4965257;28;20230;-78
2023/04/07 13:05:24;;;;;;;3.70;3.40;;;;;;;;;;4932465;28;20234;-78
2023/04/07 13:07:52;;;;;;;4.10;3.70;;;;;;;;;;4931495;29;20227;-79
2023/04/07 13:10:18;;;;;;;3.90;3.43;;;;;;;;;;4962157;28;20282;-78
2023/04/07 13:12:46;;;;;;;4.80;3.77;;;;;;;;;;4946649;29;20245;-77
2023/04/07 13:15:15;;;;;;;4.53;4.13;;;;;;;;;;4963757;28;20223;-78
2023/04/07 13:17:46;;;;;;;4.50;3.63;;;;;;;;;;4965791;28;20226;-77
2023/04/07 13:20:11;;;;;;;4.40;3.73;;;;;;;;;;4949174;28;20218;-79
2023/04/07 13:22:39;;;;;;;4.07;3.67;;;;;;;;;;4938300;29;20230;-77
2023/04/07 13:25:05;;;;;;;4.90;4.30;;;;;;;;;;4969475;28;20246;-78
2023/04/07 13:27:30;;;;;;;3.90;3.50;;;;;;;;;;4955792;29;20246;-78
2023/04/07 13:29:58;;;;;;;4.40;3.50;;;;;;;;;;4966222;28;20226;-78
2023/04/07 13:32:24;;;;;;;4.00;3.57;;;;;;;;;;4965657;28;20223;-77
2023/04/07 13:34:52;;;;;;;4.20;3.77;;;;;;;;;;4963802;28;20230;-77
2023/04/07 13:37:20;;;;;;;4.03;3.60;;;;;;;;;;4966072;28;20261;-77
2023/04/07 13:39:45;;;;;;;4.67;3.23;;;;;;;;;;4962670;28;20598;-76
2023/04/07 13:42:16;;;;;;;3.70;3.40;;;;;;;;;;4958685;28;20227;-78
2023/04/07 13:44:49;;;;;;;5.00;3.93;;;;;;;;;;4962601;28;20262;-78
2023/04/07 13:47:18;;;;;;;4.47;3.80;;;;;;;;;;4966207;28;20219;-77
2023/04/07 13:49:50;;;;;;;4.30;3.73;;;;;;;;;;4968330;28;20239;-77
2023/04/07 13:52:16;;;;;;;4.37;3.80;;;;;;;;;;4969894;28;20285;-78
2023/04/07 13:54:42;;;;;;;3.93;3.50;;;;;;;;;;4967208;28;20700;-78
2023/04/07 13:57:11;;;;;;;5.03;3.90;;;;;;;;;;4969748;28;20254;-77
2023/04/07 13:59:38;;;;;;;4.17;3.70;;;;;;;;;;4967702;28;20210;-77
2023/04/07 14:02:04;;;;;;;4.57;3.43;;;;;;;;;;4952213;29;20241;-78
2023/04/07 14:04:34;;;;;;;4.60;3.80;;;;;;;;;;4955869;29;20274;-78
2023/04/07 14:07:07;;;;;;;4.30;3.90;;;;;;;;;;4953777;29;20214;-77
2023/04/07 14:09:33;;;;;;;4.40;4.00;;;;;;;;;;4966606;28;20483;-78
2023/04/07 14:11:58;;;;;;;6.37;3.43;;;;;;;;;;4969008;28;20259;-78
2023/04/07 14:14:24;;;;;;;5.00;4.10;;;;;;;;;;4968271;28;20230;-78
2023/04/07 14:16:54;;;;;;;4.00;3.60;;;;;;;;;;4965547;28;20241;-77
2023/04/07 14:19:22;;;;;;;5.37;4.00;;;;;;;;;;4951027;28;20222;-78
2023/04/07 14:21:53;;;;;;;5.30;3.70;;;;;;;;;;4954064;29;20223;-77
2023/04/07 14:24:21;;;;;;;3.80;3.40;;;;;;;;;;4969292;28;20313;-78
2023/04/07 14:26:46;;;;;;;4.53;3.50;;;;;;;;;;4959891;29;20251;-77
2023/04/07 14:29:12;;;;;;;5.35;3.63;;;;;;;;;;4958079;28;20218;-77
2023/04/07 14:31:40;;;;;;;3.83;3.42;;;;;;;;;;4961561;28;20227;-77
2023/04/07 14:34:08;;;;;;;5.47;3.40;;;;;;;;;;4934270;29;20226;-77
2023/04/07 14:36:34;;;;;;;3.80;3.40;;;;;;;;;;4953153;28;20233;-77
2023/04/07 14:39:00;;;;;;;3.88;3.35;;;;;;;;;;4933109;29;20230;-77
2023/04/07 14:41:30;;;;;;;5.38;3.75;;;;;;;;;;4957026;28;20219;-77
2023/04/07 14:43:56;;;;;;;4.18;3.33;;;;;;;;;;4957656;28;20232;-78
2023/04/07 14:46:26;;;;;;;4.68;3.42;;;;;;;;;;4940153;28;20285;-77
2023/04/07 14:48:56;;;;;;;4.35;3.65;;;;;;;;;;4961152;28;20219;-77
2023/04/07 14:51:21;;;;;;;5.33;3.23;;;;;;;;;;4944721;29;20318;-77